Time;durP1;ratioP1;P1;durP2;ratioP2;P2;SDS_P1;SDS_P2;PMS_P1;PMS_P2;Temp;Humidity;BMP_temperature;BMP_pressure;BME280_temperature;BME280_humidity;BME280_pressure;Samples;Min_cycle;Max_cycle;Signal;HPM_P1;HPM_P2
2023/05/16 00:01:45;;;;;;;9.20;8.30;;;10.40;99.90;;;10.31;87.58;97536.81;5008376;28;20881;-76
2023/05/16 00:04:12;;;;;;;10.73;8.70;;;10.40;99.90;;;10.25;88.53;97535.03;5009196;28;20646;-76
2023/05/16 00:06:39;;;;;;;11.00;8.87;;;10.30;99.90;;;10.19;88.87;97540.25;5003249;28;21072;-74
2023/05/16 00:09:06;;;;;;;10.03;8.60;;;10.30;99.90;;;10.19;87.94;97513.25;5023600;28;20494;-75
2023/05/16 00:11:33;;;;;;;11.40;9.27;;;10.30;99.90;;;10.34;86.98;97533.66;4999315;28;20466;-75
2023/05/16 00:14:01;;;;;;;9.70;7.73;;;10.30;99.90;;;10.27;87.60;97533.72;4993975;28;20458;-74
2023/05/16 00:16:29;;;;;;;12.33;9.57;;;10.20;99.90;;;10.20;87.87;97531.09;5007514;28;20928;-73
2023/05/16 00:18:59;;;;;;;9.70;8.70;;;10.20;99.90;;;10.36;87.29;97542.34;5001936;28;20455;-74
2023/05/16 00:21:27;;;;;;;12.63;9.83;;;10.20;99.90;;;10.40;86.75;97543.56;5024260;28;20505;-77
2023/05/16 00:23:54;;;;;;;12.00;9.50;;;10.30;99.90;;;9.85;87.45;97472.31;4999323;28;20946;-74
2023/05/16 00:26:21;;;;;;;11.93;10.30;;;10.30;99.90;;;9.91;88.27;97487.59;5011580;28;20536;-76
2023/05/16 00:28:48;;;;;;;14.93;8.50;;;10.20;99.90;;;9.98;88.39;97508.31;5000143;28;20447;-76
2023/05/16 00:31:15;;;;;;;9.70;8.33;;;10.20;99.90;;;9.64;88.22;97436.66;5004980;28;20453;-74
2023/05/16 00:33:44;;;;;;;8.93;7.83;;;10.20;99.90;;;10.29;87.98;97528.91;5001578;28;20461;-74
2023/05/16 00:36:13;;;;;;;11.90;8.17;;;10.20;99.90;;;10.51;86.98;97522.25;5010805;28;20455;-74
2023/05/16 00:38:40;;;;;;;11.40;8.70;;;10.40;99.90;;;10.34;86.70;97533.66;5030716;28;20465;-77
2023/05/16 00:41:07;;;;;;;10.30;8.73;;;10.40;99.90;;;10.30;86.80;97502.75;5005489;28;20469;-76
2023/05/16 00:43:34;;;;;;;12.80;10.07;;;10.40;99.90;;;10.02;86.74;97466.31;4999829;28;20512;-75
2023/05/16 00:46:01;;;;;;;10.60;9.50;;;10.40;99.90;;;10.28;86.63;97531.88;5027979;28;20460;-74
2023/05/16 00:48:29;;;;;;;12.77;9.30;;;10.40;99.90;;;10.02;88.20;97521.13;4999262;28;20468;-76
2023/05/16 00:50:56;;;;;;;11.07;9.27;;;10.30;99.90;;;10.14;88.82;97528.47;5027970;28;20461;-74
2023/05/16 00:53:25;;;;;;;10.43;8.93;;;10.20;99.90;;;9.98;87.65;97497.50;5010806;28;20556;-75
2023/05/16 00:55:53;;;;;;;9.63;7.80;;;10.20;99.90;;;10.27;87.72;97528.31;5022236;28;20468;-75
2023/05/16 00:58:22;;;;;;;12.00;9.00;;;10.20;99.90;;;10.02;86.97;97493.31;5018000;28;20469;-74
2023/05/16 01:00:50;;;;;;;13.57;9.33;;;10.20;99.90;;;10.06;88.45;97530.44;5013901;28;20458;-75
2023/05/16 01:03:18;;;;;;;13.73;9.33;;;10.10;99.90;;;10.25;87.25;97535.81;5037369;28;20468;-73
2023/05/16 01:05:46;;;;;;;11.77;8.07;;;10.20;99.90;;;10.18;87.86;97535.91;5018581;28;20478;-74
2023/05/16 01:08:13;;;;;;;9.73;7.83;;;10.20;99.90;;;10.10;87.71;97536.22;5012112;28;20549;-75
2023/05/16 01:10:50;;;;;;;9.70;8.60;;;10.20;99.90;;;10.20;87.69;97539.19;5022253;28;20488;-74
2023/05/16 01:13:27;;;;;;;10.37;7.90;;;10.20;99.90;;;10.15;88.03;97536.34;5027112;28;20549;-74
2023/05/16 01:16:05;;;;;;;10.63;8.77;;;10.20;99.90;;;10.07;88.03;97528.53;5003554;28;20453;-74
2023/05/16 01:18:43;;;;;;;10.93;8.60;;;10.20;99.90;;;10.00;87.84;97517.00;5003049;28;20462;-75
2023/05/16 01:21:17;;;;;;;11.60;8.93;;;10.10;99.90;;;10.16;87.94;97538.00;5027843;28;20540;-74
2023/05/16 01:23:56;;;;;;;10.97;8.30;;;10.10;99.90;;;10.21;87.48;97546.25;5020186;28;20576;-75
2023/05/16 01:26:27;;;;;;;11.33;8.80;;;10.10;99.90;;;10.17;87.75;97528.84;5029574;28;21123;-75
2023/05/16 01:28:55;;;;;;;10.67;9.07;;;10.20;99.90;;;10.27;87.47;97544.53;5019723;28;20463;-75
2023/05/16 01:31:23;;;;;;;14.47;10.23;;;10.20;99.90;;;10.18;87.80;97552.09;5027699;28;20457;-75
2023/05/16 01:33:51;;;;;;;11.93;9.07;;;10.10;99.90;;;9.91;88.51;97516.47;5014286;28;20460;-75
2023/05/16 01:36:25;;;;;;;8.83;7.93;;;10.10;99.90;;;10.16;88.32;97547.97;5009705;28;20459;-76
2023/05/16 01:39:03;;;;;;;12.10;9.13;;;10.10;99.90;;;10.22;88.96;97547.09;5010821;28;20460;-76
2023/05/16 01:41:43;;;;;;;13.50;9.50;;;10.10;99.90;;;10.14;88.88;97542.81;5014556;28;20957;-74
2023/05/16 01:44:19;;;;;;;10.87;9.27;;;10.10;99.90;;;10.07;88.71;97521.28;5024834;28;20476;-74
2023/05/16 01:46:48;;;;;;;11.83;9.10;;;10.10;99.90;;;10.30;88.16;97543.25;5019025;28;20481;-75
2023/05/16 01:49:20;;;;;;;11.57;9.67;;;10.20;99.90;;;10.18;88.84;97541.31;5022382;28;20470;-75
2023/05/16 01:51:52;;;;;;;9.80;8.07;;;10.20;99.90;;;10.18;89.03;97530.50;5031999;28;20844;-77
2023/05/16 01:54:21;;;;;;;10.70;9.47;;;10.10;99.90;;;10.28;88.29;97540.78;5016642;28;20797;-75
2023/05/16 01:56:54;;;;;;;10.17;9.00;;;10.20;99.90;;;9.12;87.64;97403.75;5009693;28;20866;-75
2023/05/16 01:59:23;;;;;;;10.40;8.63;;;10.10;99.90;;;9.98;89.79;97540.69;5022110;28;20532;-76
2023/05/16 02:01:53;;;;;;;15.53;9.60;;;10.00;99.90;;;9.85;90.18;97542.47;5021548;28;20576;-75
2023/05/16 02:04:22;;;;;;;10.87;8.57;;;9.80;99.90;;;9.74;90.41;97535.09;5026652;28;20520;-76
2023/05/16 02:06:50;;;;;;;10.37;8.67;;;9.80;99.90;;;9.59;91.29;97517.38;4978139;28;20556;-75
2023/05/16 02:09:17;;;;;;;10.97;9.20;;;9.80;99.90;;;9.70;91.69;97542.00;5018996;28;20488;-74
2023/05/16 02:11:45;;;;;;;12.07;10.10;;;9.90;99.90;;;9.67;91.75;97545.94;5014841;28;20789;-76
2023/05/16 02:14:14;;;;;;;12.00;10.10;;;9.80;99.90;;;9.68;92.30;97557.59;5026236;28;20472;-77
2023/05/16 02:16:41;;;;;;;11.63;10.10;;;9.80;99.90;;;9.70;92.00;97560.88;5019452;28;20469;-75
2023/05/16 02:19:08;;;;;;;11.57;9.27;;;9.90;99.90;;;9.58;92.72;97537.31;5013479;28;20945;-76
2023/05/16 02:21:36;;;;;;;13.93;10.70;;;9.80;99.90;;;9.73;92.70;97563.97;5007650;28;20544;-75
2023/05/16 02:24:04;;;;;;;10.30;9.27;;;9.80;99.90;;;9.83;91.53;97559.91;5005666;28;20481;-75
2023/05/16 02:26:31;;;;;;;12.80;9.20;;;9.80;99.90;;;9.81;92.20;97557.47;5001808;28;20480;-77
2023/05/16 02:28:58;;;;;;;12.90;9.93;;;9.90;99.90;;;9.73;92.16;97534.28;4999154;28;20487;-76
2023/05/16 02:31:31;;;;;;;11.70;9.13;;;9.80;99.90;;;9.83;91.21;97535.63;5017429;28;20457;-74
2023/05/16 02:34:00;;;;;;;13.40;10.60;;;9.90;99.90;;;10.03;90.71;97538.16;5008106;28;20451;-75
2023/05/16 02:36:29;;;;;;;12.73;9.53;;;10.00;99.90;;;10.05;90.97;97544.97;5008443;28;20969;-76
2023/05/16 02:38:56;;;;;;;21.60;12.80;;;10.00;99.90;;;9.57;90.98;97513.28;5031379;28;20519;-76
2023/05/16 02:41:24;;;;;;;18.37;12.80;;;10.00;99.90;;;10.20;89.92;97536.50;5019849;28;20470;-73
2023/05/16 02:43:51;;;;;;;17.40;13.70;;;10.20;99.90;;;10.29;88.79;97552.41;5001314;28;20449;-76
2023/05/16 02:46:29;;;;;;;15.23;12.00;;;10.20;99.90;;;10.37;88.63;97548.59;5021128;28;20457;-73
2023/05/16 02:48:59;;;;;;;11.20;9.97;;;10.30;99.90;;;10.51;87.61;97550.09;5014111;28;20486;-74
2023/05/16 02:51:28;;;;;;;13.27;11.40;;;10.40;99.90;;;10.49;86.79;97547.63;5022801;28;20453;-75
2023/05/16 02:53:58;;;;;;;12.00;9.80;;;10.40;99.90;;;10.29;87.47;97525.41;5005952;28;20869;-76
2023/05/16 02:56:26;;;;;;;11.20;9.33;;;10.50;99.90;;;10.59;87.46;97557.06;5018736;28;20512;-76
2023/05/16 02:58:54;;;;;;;11.70;9.50;;;10.50;99.90;;;10.59;86.66;97552.47;5000839;28;20498;-74
2023/05/16 03:01:22;;;;;;;9.53;8.40;;;10.50;99.90;;;10.41;87.64;97544.41;5021951;28;20569;-75
2023/05/16 03:03:50;;;;;;;11.00;8.80;;;10.50;99.90;;;10.34;88.23;97542.59;5007871;28;20484;-77
2023/05/16 03:06:18;;;;;;;10.10;8.90;;;10.40;99.90;;;10.36;89.23;97558.53;5014288;28;20461;-76
2023/05/16 03:08:46;;;;;;;12.00;9.43;;;10.30;99.90;;;10.20;88.18;97533.78;5026590;28;20481;-77
2023/05/16 03:11:13;;;;;;;11.83;8.90;;;10.30;99.90;;;10.23;88.78;97547.88;5018983;28;20460;-75
2023/05/16 03:13:40;;;;;;;13.13;11.33;;;10.20;99.90;;;10.11;89.28;97556.75;4996030;28;20513;-74
2023/05/16 03:16:08;;;;;;;13.93;9.63;;;10.20;99.90;;;9.82;89.60;97518.66;5010196;28;20494;-76
2023/05/16 03:18:35;;;;;;;12.90;10.00;;;10.10;99.90;;;9.70;89.30;97479.94;5006068;28;20493;-75
2023/05/16 03:21:05;;;;;;;11.20;9.80;;;10.20;99.90;;;10.05;89.36;97547.69;5004519;28;20928;-75
2023/05/16 03:23:32;;;;;;;12.20;10.20;;;10.20;99.90;;;9.29;89.14;97401.31;5019961;28;20459;-76
2023/05/16 03:25:59;;;;;;;10.40;9.30;;;10.20;99.90;;;10.05;89.85;97542.28;5011381;28;20466;-76
2023/05/16 03:28:27;;;;;;;10.97;9.77;;;10.20;99.90;;;10.00;89.30;97528.59;4998657;28;20481;-76
2023/05/16 03:30:54;;;;;;;14.30;10.00;;;10.10;99.90;;;10.25;89.31;97568.22;5005292;28;20457;-76
2023/05/16 03:33:23;;;;;;;11.33;9.43;;;10.20;99.90;;;10.18;89.47;97556.69;5001680;28;20525;-76
2023/05/16 03:35:51;;;;;;;11.03;9.93;;;10.20;99.90;;;10.29;89.52;97568.59;5000816;28;20682;-75
2023/05/16 03:38:20;;;;;;;12.90;10.33;;;10.20;99.90;;;10.37;89.21;97570.19;5001393;28;20577;-76
2023/05/16 03:40:47;;;;;;;15.50;10.47;;;10.20;99.90;;;10.41;89.34;97572.25;5013240;28;20536;-74
2023/05/16 03:43:14;;;;;;;14.37;9.93;;;10.30;99.90;;;10.43;88.76;97570.16;5015247;28;20508;-75
2023/05/16 03:45:42;;;;;;;10.83;9.30;;;10.30;99.90;;;10.51;88.60;97566.31;5004605;28;20460;-75
2023/05/16 03:48:09;;;;;;;13.30;9.67;;;10.40;99.90;;;10.66;87.38;97576.72;4996777;28;20490;-75
2023/05/16 03:50:38;;;;;;;14.37;9.70;;;10.50;99.90;;;10.66;87.66;97576.72;5018028;28;20490;-76
2023/05/16 03:53:06;;;;;;;11.67;9.17;;;10.60;99.90;;;10.70;86.92;97575.22;4998375;28;20503;-77
2023/05/16 03:55:39;;;;;;;10.07;9.03;;;10.60;99.90;;;10.82;86.47;97563.63;4999603;28;20476;-75
2023/05/16 03:58:07;;;;;;;10.73;9.53;;;10.70;99.90;;;10.70;86.75;97569.84;4994947;28;20587;-76
2023/05/16 04:00:35;;;;;;;10.87;9.60;;;10.70;99.90;;;10.51;86.80;97554.66;5002893;28;20460;-77
2023/05/16 04:03:04;;;;;;;12.73;10.17;;;10.70;99.90;;;10.83;86.45;97573.38;5025535;28;20490;-75
2023/05/16 04:05:32;;;;;;;12.77;10.57;;;10.80;99.90;;;10.98;85.39;97573.00;5000841;28;20457;-76
2023/05/16 04:07:59;;;;;;;14.57;10.67;;;10.90;99.30;;;10.84;85.92;97575.03;5020613;28;20844;-78
2023/05/16 04:10:28;;;;;;;13.37;11.13;;;10.90;98.20;;;10.80;85.85;97574.69;4998800;28;20528;-79
2023/05/16 04:12:59;;;;;;;11.80;9.87;;;10.80;99.30;;;10.83;86.20;97573.38;5008257;28;20464;-77
2023/05/16 04:15:26;;;;;;;11.80;10.33;;;10.80;99.90;;;11.01;85.11;97581.47;5022570;28;20465;-77
2023/05/16 04:17:54;;;;;;;17.13;12.30;;;10.90;99.90;;;10.98;85.41;97581.91;4998799;28;20550;-76
2023/05/16 04:20:21;;;;;;;19.80;14.17;;;11.00;98.50;;;10.44;84.91;97501.56;5023999;28;20472;-77
2023/05/16 04:22:48;;;;;;;12.33;10.80;;;11.00;98.40;;;10.42;85.58;97500.13;5007477;28;21013;-78
2023/05/16 04:25:16;;;;;;;15.10;12.27;;;11.00;98.80;;;10.77;85.99;97597.56;5009011;28;20452;-78
2023/05/16 04:27:43;;;;;;;11.13;9.97;;;10.90;98.10;;;10.76;85.30;97563.50;5014081;28;21018;-78
2023/05/16 04:30:13;;;;;;;12.60;9.67;;;10.90;98.60;;;10.91;85.38;97573.09;5001692;28;20460;-78
2023/05/16 04:32:41;;;;;;;14.10;11.17;;;11.00;99.00;;;10.35;86.22;97527.19;5023144;28;20465;-79
2023/05/16 04:35:09;;;;;;;10.90;9.60;;;10.90;98.40;;;10.75;86.64;97580.78;5034035;28;20570;-77
2023/05/16 04:37:36;;;;;;;13.80;10.60;;;10.90;99.20;;;10.20;86.92;97528.41;5043891;28;20476;-76
2023/05/16 04:40:06;;;;;;;11.50;10.27;;;10.80;99.90;;;10.58;87.64;97583.25;5029524;28;20447;-74
2023/05/16 04:42:33;;;;;;;12.13;9.97;;;10.80;99.90;;;10.63;87.81;97590.69;5003868;28;20465;-75
2023/05/16 04:45:02;;;;;;;12.30;9.40;;;10.70;99.90;;;10.61;87.35;97592.78;5021489;28;21003;-75
2023/05/16 04:47:30;;;;;;;15.10;9.93;;;10.70;99.90;;;10.81;86.78;97591.72;5015434;28;20452;-76
2023/05/16 04:49:58;;;;;;;10.90;8.87;;;10.80;99.90;;;10.86;85.77;97599.97;5000746;28;20457;-74
2023/05/16 04:52:25;;;;;;;10.50;9.30;;;10.80;99.90;;;10.74;85.85;97580.97;5030766;28;20957;-75
2023/05/16 04:54:52;;;;;;;10.47;9.37;;;10.80;99.90;;;10.98;84.83;97597.31;5005746;28;20505;-73
2023/05/16 04:57:20;;;;;;;10.70;8.40;;;10.90;98.10;;;10.80;85.35;97606.28;5023894;28;20449;-74
2023/05/16 04:59:47;;;;;;;12.30;10.37;;;10.90;97.60;;;10.64;86.17;97586.94;5026722;28;20674;-73
2023/05/16 05:02:14;;;;;;;11.17;9.23;;;10.90;98.20;;;10.95;85.74;97590.50;5017352;28;20476;-73
2023/05/16 05:04:43;;;;;;;10.80;9.70;;;10.90;99.00;;;10.90;85.51;97607.38;5025546;28;20467;-73
2023/05/16 05:07:10;;;;;;;12.37;11.07;;;11.00;97.90;;;10.95;85.35;97601.31;4997339;28;20486;-74
2023/05/16 05:09:37;;;;;;;12.07;9.67;;;10.90;98.00;;;11.03;85.14;97606.41;4994493;28;20591;-74
2023/05/16 05:12:06;;;;;;;14.00;9.17;;;11.10;98.20;;;11.03;84.38;97601.00;5020082;28;20465;-74
2023/05/16 05:14:33;;;;;;;14.27;10.97;;;11.10;97.00;;;11.41;83.03;97604.41;5001651;28;20540;-76
2023/05/16 05:17:01;;;;;;;14.90;11.67;;;11.40;95.70;;;11.53;82.72;97601.75;5020271;28;20470;-80
2023/05/16 05:19:28;;;;;;;14.73;11.40;;;11.50;95.10;;;11.70;81.67;97606.47;5022913;28;20468;-76
2023/05/16 05:21:56;;;;;;;14.90;11.13;;;11.60;94.90;;;11.77;81.47;97609.91;5024200;28;20503;-77
2023/05/16 05:24:25;;;;;;;15.87;11.40;;;11.70;94.50;;;11.76;81.21;97605.56;5024804;28;20876;-77
2023/05/16 05:26:52;;;;;;;12.30;10.67;;;11.80;93.60;;;11.99;79.81;97607.47;5004445;28;20464;-75
2023/05/16 05:29:20;;;;;;;11.80;10.60;;;11.90;93.10;;;11.83;80.10;97606.25;5016381;28;20518;-79
2023/05/16 05:31:47;;;;;;;11.60;9.90;;;11.90;92.50;;;11.92;79.71;97605.94;5001687;28;20470;-77
2023/05/16 05:34:14;;;;;;;16.13;10.10;;;11.90;92.40;;;12.12;79.78;97605.59;5007344;28;20464;-78
2023/05/16 05:36:42;;;;;;;15.20;11.03;;;12.10;92.70;;;12.10;79.26;97608.56;5016195;28;20465;-79
2023/05/16 05:39:11;;;;;;;10.97;9.87;;;12.10;92.20;;;12.19;78.41;97623.38;5020554;28;20552;-77
2023/05/16 05:41:38;;;;;;;10.93;9.83;;;12.20;91.80;;;12.46;77.26;97616.66;5017345;28;20476;-75
2023/05/16 05:44:06;;;;;;;10.93;9.73;;;12.40;91.10;;;12.58;76.42;97608.50;5018890;28;20468;-80
2023/05/16 05:46:34;;;;;;;10.27;9.27;;;12.50;90.70;;;12.50;75.97;97611.56;5018112;28;20470;-75
2023/05/16 05:49:01;;;;;;;9.97;9.07;;;12.60;89.80;;;12.52;76.43;97614.88;5020991;28;20546;-78
2023/05/16 05:51:29;;;;;;;10.23;9.23;;;12.60;90.00;;;12.65;76.34;97608.38;5026244;28;20468;-76
2023/05/16 05:53:56;;;;;;;10.23;8.53;;;12.60;90.20;;;12.93;75.39;97610.28;5000915;28;20974;-76
2023/05/16 05:56:25;;;;;;;9.03;8.13;;;12.80;90.10;;;12.75;75.54;97608.59;5024856;28;20463;-80
2023/05/16 05:58:52;;;;;;;8.77;7.87;;;12.80;89.20;;;12.90;75.46;97591.81;5006585;28;20457;-81
2023/05/16 06:01:21;;;;;;;9.00;8.20;;;12.90;89.70;;;13.01;75.01;97615.34;5025509;28;20454;-78
2023/05/16 06:03:48;;;;;;;9.40;8.47;;;13.00;89.00;;;13.09;74.82;97608.72;5015675;28;20530;-79
2023/05/16 06:06:15;;;;;;;9.70;8.70;;;13.10;88.80;;;13.32;73.81;97607.78;4998432;28;20453;-82
2023/05/16 06:08:43;;;;;;;10.40;9.40;;;13.30;88.10;;;13.62;73.17;97610.50;4992311;28;20491;-74
2023/05/16 06:11:10;;;;;;;10.90;9.10;;;13.60;87.90;;;13.70;72.24;97605.50;5019576;28;20465;-76
2023/05/16 06:13:38;;;;;;;11.90;10.50;;;13.80;86.40;;;14.02;71.00;97612.22;5002437;28;20474;-76
2023/05/16 06:16:06;;;;;;;10.20;8.33;;;13.90;86.20;;;14.16;69.54;97613.53;5019070;28;20548;-76
2023/05/16 06:18:34;;;;;;;9.27;8.37;;;14.20;85.10;;;14.10;69.76;97609.09;5016649;28;20456;-78
2023/05/16 06:21:01;;;;;;;10.03;9.03;;;14.20;84.70;;;13.80;70.03;97607.53;5018735;28;20469;-78
2023/05/16 06:23:29;;;;;;;9.00;8.10;;;14.10;83.80;;;13.76;70.75;97619.16;5026240;28;20447;-81
2023/05/16 06:25:56;;;;;;;9.20;8.20;;;14.00;84.40;;;13.76;71.21;97619.97;5026188;28;20452;-78
2023/05/16 06:28:23;;;;;;;10.83;9.60;;;13.90;84.70;;;13.54;71.12;97585.41;5029534;28;20543;-79
2023/05/16 06:30:52;;;;;;;9.50;8.60;;;13.90;84.70;;;13.57;70.64;97598.50;5006814;28;20466;-80
2023/05/16 06:33:19;;;;;;;12.33;8.80;;;13.90;84.40;;;13.60;70.84;97617.00;5007667;28;20533;-80
2023/05/16 06:35:47;;;;;;;10.93;8.40;;;13.80;84.40;;;13.71;70.44;97603.59;5026214;28;20457;-76
2023/05/16 06:38:14;;;;;;;10.20;9.20;;;13.80;84.40;;;13.74;69.77;97620.22;5027979;28;20454;-79
2023/05/16 06:40:41;;;;;;;9.40;8.47;;;13.90;83.70;;;13.83;69.35;97620.63;5000448;28;21188;-79
2023/05/16 06:43:10;;;;;;;12.13;8.33;;;13.90;83.70;;;13.74;69.21;97613.97;5002029;28;20952;-78
2023/05/16 06:45:37;;;;;;;11.10;9.17;;;13.90;83.40;;;13.78;69.23;97617.84;5004523;28;20469;-77
2023/05/16 06:48:08;;;;;;;9.47;8.47;;;13.90;83.40;;;14.05;68.53;97603.59;5016678;28;20457;-77
2023/05/16 06:50:35;;;;;;;10.23;8.73;;;14.10;83.40;;;14.33;67.73;97603.72;5030205;28;20470;-81
2023/05/16 06:53:03;;;;;;;8.33;7.43;;;14.40;82.90;;;14.56;65.97;97583.66;5003417;28;20493;-77
2023/05/16 06:55:31;;;;;;;10.57;8.47;;;14.70;82.20;;;14.82;65.13;97603.84;5029665;28;20469;-79
2023/05/16 06:57:58;;;;;;;8.73;7.80;;;14.90;81.80;;;14.90;65.26;97618.91;5007536;28;20520;-83
2023/05/16 07:00:26;;;;;;;7.93;7.23;;;15.00;81.10;;;15.22;63.98;97596.41;5023509;28;20462;-80
2023/05/16 07:02:53;;;;;;;8.80;7.63;;;15.30;80.70;;;15.43;62.54;97615.69;5024452;28;20966;-81
2023/05/16 07:05:22;;;;;;;7.67;6.93;;;15.50;79.50;;;15.68;61.88;97617.00;5016635;28;20972;-79
2023/05/16 07:07:49;;;;;;;8.93;7.63;;;15.80;78.90;;;16.12;59.83;97622.28;4998884;28;21230;-79
2023/05/16 07:10:16;;;;;;;8.40;7.70;;;16.10;77.30;;;16.05;60.01;97612.69;5018449;28;20476;-79
2023/05/16 07:12:43;;;;;;;7.97;7.20;;;16.30;76.70;;;16.80;57.29;97626.22;4999304;28;20555;-79
2023/05/16 07:15:11;;;;;;;7.60;6.83;;;16.70;75.40;;;16.82;56.85;97615.06;5026298;28;20764;-80
2023/05/16 07:17:38;;;;;;;8.80;7.40;;;17.00;73.90;;;17.17;56.81;97621.75;5005269;28;20459;-78
2023/05/16 07:20:12;;;;;;;7.27;6.57;;;17.10;74.00;;;16.99;56.71;97612.97;4998946;28;20452;-77
2023/05/16 07:22:41;;;;;;;7.80;7.10;;;17.40;72.50;;;17.05;55.49;97600.19;5004674;28;20465;-79
2023/05/16 07:25:11;;;;;;;8.00;7.27;;;17.20;71.40;;;16.80;55.36;97617.25;5002250;28;20460;-79
2023/05/16 07:27:40;;;;;;;7.70;7.00;;;17.10;70.20;;;16.65;55.27;97621.53;4999024;28;20477;-80
2023/05/16 07:30:10;;;;;;;7.97;7.27;;;16.80;69.60;;;16.31;55.54;97621.88;5005203;28;20473;-77
2023/05/16 07:32:38;;;;;;;7.87;7.10;;;16.60;69.30;;;16.43;56.32;97635.31;4997178;28;20907;-77
2023/05/16 07:35:06;;;;;;;7.03;6.33;;;16.50;70.30;;;16.37;55.73;97620.00;5009141;28;20509;-77
2023/05/16 07:37:33;;;;;;;7.77;7.07;;;16.50;69.90;;;17.01;54.39;97620.06;5004732;28;20523;-79
2023/05/16 07:40:02;;;;;;;9.17;8.23;;;16.90;69.90;;;17.27;54.55;97621.81;5017319;28;20471;-79
2023/05/16 07:42:29;;;;;;;8.33;7.47;;;17.20;69.70;;;17.20;53.90;97628.59;5014189;28;20461;-79
2023/05/16 07:44:57;;;;;;;9.00;8.10;;;17.30;68.40;;;16.54;55.75;97625.28;5000967;28;20979;-78
2023/05/16 07:47:24;;;;;;;8.00;7.40;;;16.90;69.10;;;16.08;57.77;97629.34;5021603;28;20462;-79
2023/05/16 07:49:51;;;;;;;8.03;7.30;;;16.40;70.20;;;15.65;58.25;97612.91;5021526;28;20564;-77
2023/05/16 07:52:19;;;;;;;8.87;7.13;;;16.10;71.20;;;15.12;59.06;97537.28;5008764;28;20503;-81
2023/05/16 07:54:47;;;;;;;7.60;6.80;;;15.90;72.40;;;15.98;58.74;97637.44;5004395;28;20474;-81
2023/05/16 07:57:16;;;;;;;9.00;8.10;;;16.10;72.70;;;16.33;57.88;97643.41;5005978;28;20456;-81
2023/05/16 07:59:44;;;;;;;8.57;7.53;;;16.30;72.20;;;16.34;58.29;97650.50;5016209;28;20254;-80
2023/05/16 08:02:12;;;;;;;8.20;7.00;;;16.40;72.30;;;16.31;56.69;97643.69;5005414;28;20482;-81
2023/05/16 08:04:39;;;;;;;7.97;7.17;;;16.50;71.00;;;16.24;57.22;97646.66;5011491;28;20486;-80
2023/05/16 08:07:07;;;;;;;8.80;7.93;;;16.40;71.10;;;16.00;58.34;97647.00;5012271;28;20530;-81
2023/05/16 08:09:35;;;;;;;9.90;7.07;;;16.20;71.70;;;16.11;57.74;97641.63;5022194;28;20479;-80
2023/05/16 08:12:03;;;;;;;8.37;7.67;;;16.20;71.50;;;16.16;57.09;97638.13;5020299;28;20455;-83
2023/05/16 08:14:32;;;;;;;8.37;7.10;;;16.30;71.10;;;16.12;56.70;97646.81;5024842;28;20466;-78
2023/05/16 08:17:00;;;;;;;8.60;7.53;;;16.30;70.30;;;16.01;56.75;97647.84;4999682;28;20460;-82
2023/05/16 08:19:28;;;;;;;8.20;7.40;;;16.20;70.00;;;15.93;57.35;97653.75;5001526;28;20462;-80
2023/05/16 08:21:55;;;;;;;8.40;7.37;;;16.10;70.50;;;15.67;58.06;97648.03;5010067;28;20467;-82
2023/05/16 08:24:23;;;;;;;8.80;7.50;;;16.00;70.70;;;16.01;56.60;97658.72;5006532;28;20461;-81
2023/05/16 08:26:51;;;;;;;8.37;7.40;;;16.00;70.00;;;16.39;56.13;97662.28;4999645;28;20605;-82
2023/05/16 08:29:18;;;;;;;7.00;6.30;;;16.40;70.30;;;16.50;53.76;97654.16;5022902;28;20509;-80
2023/05/16 08:31:48;;;;;;;7.07;6.37;;;16.50;67.70;;;16.59;52.78;97663.47;5006279;28;21168;-81
2023/05/16 08:34:15;;;;;;;6.80;6.10;;;16.60;65.80;;;16.79;52.08;97656.53;5025493;28;20487;-78
2023/05/16 08:36:42;;;;;;;6.53;6.03;;;16.80;65.10;;;16.84;51.09;97659.25;5008195;28;20460;-81
2023/05/16 08:39:11;;;;;;;7.53;6.63;;;17.00;64.20;;;16.78;51.93;97672.06;5025423;28;20453;-80
2023/05/16 08:41:39;;;;;;;7.60;6.90;;;16.90;64.20;;;16.74;51.66;97664.66;5000394;28;20455;-79
2023/05/16 08:44:06;;;;;;;6.13;5.60;;;16.80;63.70;;;16.95;51.08;97655.50;5006045;28;20487;-84
2023/05/16 08:46:35;;;;;;;5.80;5.20;;;17.10;63.60;;;16.98;50.27;97654.97;5006279;28;20506;-79
2023/05/16 08:49:06;;;;;;;6.10;5.60;;;17.10;62.70;;;16.94;51.15;97661.22;5003741;28;20495;-82
2023/05/16 08:51:35;;;;;;;6.57;5.97;;;17.00;62.80;;;16.66;50.80;97650.44;5006661;28;20479;-77
2023/05/16 08:54:07;;;;;;;7.47;6.43;;;16.90;61.80;;;16.60;51.41;97637.84;5007318;28;20470;-80
2023/05/16 08:56:36;;;;;;;6.97;6.23;;;16.90;62.40;;;16.73;50.50;97658.41;5011055;28;20566;-77
2023/05/16 08:59:05;;;;;;;6.93;5.63;;;16.90;61.60;;;16.68;51.20;97645.53;5019011;28;20507;-81
2023/05/16 09:01:32;;;;;;;6.53;5.97;;;16.80;62.20;;;16.31;51.11;97646.41;5025043;28;20473;-77
2023/05/16 09:04:00;;;;;;;6.87;6.17;;;16.60;61.60;;;16.50;52.19;97640.53;5027241;28;20469;-79
2023/05/16 09:06:30;;;;;;;8.13;6.87;;;16.60;62.90;;;16.20;52.04;97574.66;5005495;28;20529;-79
2023/05/16 09:08:59;;;;;;;6.83;6.03;;;16.70;63.00;;;16.63;52.11;97596.44;5002873;28;20455;-79
2023/05/16 09:11:26;;;;;;;6.07;5.47;;;16.90;63.50;;;17.24;49.99;97641.47;5005438;28;20459;-81
2023/05/16 09:13:53;;;;;;;6.77;6.17;;;17.20;61.80;;;17.73;50.00;97650.28;5005888;28;20455;-82
2023/05/16 09:16:21;;;;;;;6.60;5.93;;;17.50;62.60;;;17.78;49.90;97631.16;5011383;28;20439;-79
2023/05/16 09:18:56;;;;;;;8.43;7.03;;;17.80;62.30;;;18.24;51.82;97656.88;5010232;28;20467;-83
2023/05/16 09:21:31;;;;;;;8.27;7.40;;;18.20;64.60;;;18.21;51.98;97652.81;5029328;28;20468;-77
2023/05/16 09:24:03;;;;;;;8.33;7.53;;;18.30;64.80;;;18.18;52.21;97658.81;5023155;28;20958;-81
2023/05/16 09:26:31;;;;;;;8.97;8.07;;;18.40;64.80;;;17.67;53.19;97652.19;5007999;28;20466;-77
2023/05/16 09:28:58;;;;;;;8.47;7.67;;;18.00;64.70;;;17.48;54.73;97651.06;5023036;28;20455;-81
2023/05/16 09:31:30;;;;;;;9.17;8.27;;;17.70;66.50;;;17.23;56.13;97663.56;5008832;28;20460;-82
2023/05/16 09:33:59;;;;;;;10.87;8.70;;;17.50;67.90;;;17.36;56.16;97670.41;5028258;28;21373;-81
2023/05/16 09:36:27;;;;;;;9.33;8.40;;;17.40;68.80;;;17.33;56.93;97660.03;5000997;28;20464;-81
2023/05/16 09:38:55;;;;;;;8.80;8.00;;;17.50;69.50;;;17.59;56.40;97673.75;5018639;28;20535;-83
2023/05/16 09:41:23;;;;;;;10.00;8.87;;;17.60;69.30;;;17.15;56.09;97684.00;5001522;28;20933;-81
2023/05/16 09:43:50;;;;;;;10.37;9.30;;;17.50;68.30;;;16.92;56.99;97688.78;4993064;28;20462;-78
2023/05/16 09:46:18;;;;;;;9.67;8.43;;;17.20;69.00;;;16.74;57.25;97686.47;4996142;28;20950;-81
2023/05/16 09:48:47;;;;;;;9.60;8.60;;;17.00;69.20;;;16.99;57.46;97683.91;5015400;28;20559;-81
2023/05/16 09:51:15;;;;;;;10.00;9.00;;;17.00;70.00;;;17.17;56.34;97689.19;5031912;28;20490;-80
2023/05/16 09:53:43;;;;;;;10.00;8.90;;;17.20;69.30;;;17.27;55.69;97673.66;5020672;28;20451;-79
2023/05/16 09:56:14;;;;;;;10.07;8.07;;;17.40;69.00;;;17.33;55.36;97692.78;5005780;28;20453;-80
2023/05/16 09:58:45;;;;;;;10.20;8.40;;;17.50;68.30;;;17.07;55.82;97684.53;5002848;28;20462;-80
2023/05/16 10:01:14;;;;;;;8.73;7.83;;;17.20;68.20;;;17.06;55.28;97685.56;5025392;28;20471;-81
2023/05/16 10:03:42;;;;;;;9.07;7.40;;;17.20;67.40;;;17.06;54.76;97642.75;5003207;28;20482;-79
2023/05/16 10:06:12;;;;;;;9.13;6.87;;;17.30;67.60;;;17.19;53.41;97676.91;5001335;28;20517;-77
2023/05/16 10:08:43;;;;;;;8.53;7.73;;;17.40;65.80;;;16.66;54.41;97694.09;5016534;28;20547;-77
2023/05/16 10:11:11;;;;;;;8.83;7.93;;;17.00;65.70;;;16.34;54.92;97624.09;5007541;28;21027;-79
2023/05/16 10:13:40;;;;;;;9.50;7.50;;;16.80;66.50;;;16.48;54.72;97678.16;5025303;28;20464;-80
2023/05/16 10:16:10;;;;;;;7.83;7.07;;;16.70;65.70;;;16.69;54.60;97655.38;5021430;28;20459;-80
2023/05/16 10:18:39;;;;;;;7.83;6.53;;;16.80;66.50;;;16.94;54.14;97648.41;5024661;28;20487;-79
2023/05/16 10:21:11;;;;;;;9.77;6.77;;;17.10;66.50;;;16.67;54.34;97630.28;5024864;28;20491;-78